sensor_id;sensor_type;location;lat;lon;timestamp;pressure;altitude;pressure_sealevel;temperature;humidity
41967;BME280;27656;53.068;8.818;2023-08-06T00:00:51;100741.94;;;14.25;81.36
41967;BME280;27656;53.068;8.818;2023-08-06T00:03:18;100743.63;;;14.26;81.33
41967;BME280;27656;53.068;8.818;2023-08-06T00:05:44;100739.94;;;14.27;81.24
41967;BME280;27656;53.068;8.818;2023-08-06T00:08:11;100740.09;;;14.26;81.45
41967;BME280;27656;53.068;8.818;2023-08-06T00:10:39;100745.91;;;14.29;81.43
41967;BME280;27656;53.068;8.818;2023-08-06T00:13:06;100744.44;;;14.27;81.57
41967;BME280;27656;53.068;8.818;2023-08-06T00:15:32;100740.09;;;14.26;81.29
41967;BME280;27656;53.068;8.818;2023-08-06T00:17:59;100736.19;;;14.21;81.24
41967;BME280;27656;53.068;8.818;2023-08-06T00:20:25;100740.31;;;14.24;81.26
41967;BME280;27656;53.068;8.818;2023-08-06T00:22:52;100733.88;;;14.18;81.74
41967;BME280;27656;53.068;8.818;2023-08-06T00:25:18;100732.41;;;14.16;81.63
41967;BME280;27656;53.068;8.818;2023-08-06T00:27:45;100729.75;;;14.16;81.67
41967;BME280;27656;53.068;8.818;2023-08-06T00:30:12;100734.91;;;14.17;82.14
41967;BME280;27656;53.068;8.818;2023-08-06T00:32:38;100738.53;;;14.16;81.52
41967;BME280;27656;53.068;8.818;2023-08-06T00:35:05;100735.00;;;14.24;82.06
41967;BME280;27656;53.068;8.818;2023-08-06T00:37:32;100730.03;;;14.21;81.79
41967;BME280;27656;53.068;8.818;2023-08-06T00:39:59;100729.03;;;14.22;81.43
41967;BME280;27656;53.068;8.818;2023-08-06T00:42:25;100728.22;;;14.21;81.89
41967;BME280;27656;53.068;8.818;2023-08-06T00:44:51;100728.22;;;14.21;81.56
41967;BME280;27656;53.068;8.818;2023-08-06T00:47:18;100730.41;;;14.18;82.08
41967;BME280;27656;53.068;8.818;2023-08-06T00:49:45;100718.31;;;14.15;82.28
41967;BME280;27656;53.068;8.818;2023-08-06T00:52:11;100720.34;;;14.13;81.53
41967;BME280;27656;53.068;8.818;2023-08-06T00:54:40;100721.63;;;14.17;82.07
41967;BME280;27656;53.068;8.818;2023-08-06T00:57:07;100718.97;;;14.17;82.23
41967;BME280;27656;53.068;8.818;2023-08-06T00:59:35;100709.44;;;14.23;82.32
41967;BME280;27656;53.068;8.818;2023-08-06T01:02:02;100708.44;;;14.24;82.28
41967;BME280;27656;53.068;8.818;2023-08-06T01:04:29;100710.72;;;14.27;81.82
41967;BME280;27656;53.068;8.818;2023-08-06T01:07:04;100703.78;;;14.26;81.57
41967;BME280;27656;53.068;8.818;2023-08-06T01:09:59;100697.81;;;14.24;82.53
41967;BME280;27656;53.068;8.818;2023-08-06T01:12:38;100696.00;;;14.25;81.80
41967;BME280;27656;53.068;8.818;2023-08-06T01:15:16;100687.38;;;14.23;82.22
41967;BME280;27656;53.068;8.818;2023-08-06T01:17:46;100686.72;;;14.20;81.33
41967;BME280;27656;53.068;8.818;2023-08-06T01:20:12;100689.38;;;14.20;81.79
41967;BME280;27656;53.068;8.818;2023-08-06T01:22:39;100681.41;;;14.20;81.67
41967;BME280;27656;53.068;8.818;2023-08-06T01:25:07;100683.25;;;14.20;82.40
41967;BME280;27656;53.068;8.818;2023-08-06T01:27:46;100663.84;;;14.19;82.70
41967;BME280;27656;53.068;8.818;2023-08-06T01:30:20;100669.50;;;14.16;82.06
41967;BME280;27656;53.068;8.818;2023-08-06T01:32:50;100663.66;;;14.21;82.61
41967;BME280;27656;53.068;8.818;2023-08-06T01:35:20;100666.59;;;14.26;82.49
41967;BME280;27656;53.068;8.818;2023-08-06T01:37:47;100672.09;;;14.25;82.25
41967;BME280;27656;53.068;8.818;2023-08-06T01:40:14;100668.41;;;14.26;82.72
41967;BME280;27656;53.068;8.818;2023-08-06T01:42:41;100675.38;;;14.27;82.66
41967;BME280;27656;53.068;8.818;2023-08-06T01:45:08;100671.63;;;14.21;81.62
41967;BME280;27656;53.068;8.818;2023-08-06T01:47:35;100678.97;;;14.19;82.14
41967;BME280;27656;53.068;8.818;2023-08-06T01:50:02;100665.50;;;14.20;81.75
41967;BME280;27656;53.068;8.818;2023-08-06T01:52:29;100662.84;;;14.20;82.37
41967;BME280;27656;53.068;8.818;2023-08-06T01:54:56;100664.19;;;14.16;81.94
41967;BME280;27656;53.068;8.818;2023-08-06T01:57:22;100661.53;;;14.16;82.10
41967;BME280;27656;53.068;8.818;2023-08-06T01:59:49;100654.59;;;14.15;82.15
41967;BME280;27656;53.068;8.818;2023-08-06T02:02:15;100648.75;;;14.05;81.79
41967;BME280;27656;53.068;8.818;2023-08-06T02:04:42;100645.09;;;14.06;82.31
41967;BME280;27656;53.068;8.818;2023-08-06T02:07:08;100646.75;;;14.07;82.72
41967;BME280;27656;53.068;8.818;2023-08-06T02:09:35;100649.41;;;14.07;82.31
41967;BME280;27656;53.068;8.818;2023-08-06T02:12:02;100644.91;;;14.08;82.83
41967;BME280;27656;53.068;8.818;2023-08-06T02:14:29;100642.81;;;14.03;81.82
41967;BME280;27656;53.068;8.818;2023-08-06T02:16:55;100641.78;;;14.04;82.56
41967;BME280;27656;53.068;8.818;2023-08-06T02:19:22;100643.63;;;14.04;82.29
41967;BME280;27656;53.068;8.818;2023-08-06T02:21:48;100646.66;;;14.00;82.76
41967;BME280;27656;53.068;8.818;2023-08-06T02:24:15;100646.66;;;14.00;82.68
41967;BME280;27656;53.068;8.818;2023-08-06T02:26:41;100639.69;;;13.99;82.05
41967;BME280;27656;53.068;8.818;2023-08-06T02:29:08;100639.25;;;13.96;82.60
41967;BME280;27656;53.068;8.818;2023-08-06T02:31:34;100642.16;;;14.01;82.91
41967;BME280;27656;53.068;8.818;2023-08-06T02:34:01;100645.00;;;13.99;82.15
41967;BME280;27656;53.068;8.818;2023-08-06T02:36:28;100636.75;;;13.94;82.28
41967;BME280;27656;53.068;8.818;2023-08-06T02:38:55;100631.19;;;13.89;82.39
41967;BME280;27656;53.068;8.818;2023-08-06T02:41:22;100634.84;;;13.88;82.64
41967;BME280;27656;53.068;8.818;2023-08-06T02:43:49;100628.53;;;13.89;82.79
41967;BME280;27656;53.068;8.818;2023-08-06T02:46:15;100631.00;;;13.91;83.02
41967;BME280;27656;53.068;8.818;2023-08-06T02:48:41;100634.47;;;13.91;83.04
41967;BME280;27656;53.068;8.818;2023-08-06T02:51:08;100635.28;;;13.92;82.85
41967;BME280;27656;53.068;8.818;2023-08-06T02:53:34;100634.38;;;13.85;82.59
41967;BME280;27656;53.068;8.818;2023-08-06T02:56:01;100630.28;;;13.82;83.17
41967;BME280;27656;53.068;8.818;2023-08-06T02:58:28;100621.75;;;13.87;83.44
41967;BME280;27656;53.068;8.818;2023-08-06T03:01:01;100610.31;;;13.86;82.96
41967;BME280;27656;53.068;8.818;2023-08-06T03:03:33;100602.72;;;13.83;82.36
41967;BME280;27656;53.068;8.818;2023-08-06T03:06:00;100604.56;;;13.83;82.92
41967;BME280;27656;53.068;8.818;2023-08-06T03:08:26;100608.41;;;13.80;83.27
41967;BME280;27656;53.068;8.818;2023-08-06T03:10:53;100608.78;;;13.77;82.54
41967;BME280;27656;53.068;8.818;2023-08-06T03:13:20;100612.78;;;13.73;82.71
41967;BME280;27656;53.068;8.818;2023-08-06T03:15:53;100595.41;;;13.70;82.67
41967;BME280;27656;53.068;8.818;2023-08-06T03:18:20;100602.72;;;13.68;82.73
41967;BME280;27656;53.068;8.818;2023-08-06T03:20:48;100598.88;;;13.71;83.26
41967;BME280;27656;53.068;8.818;2023-08-06T03:23:15;100592.31;;;13.67;82.77
41967;BME280;27656;53.068;8.818;2023-08-06T03:25:41;100592.09;;;13.68;82.90
41967;BME280;27656;53.068;8.818;2023-08-06T03:28:08;100589.00;;;13.65;82.91
41967;BME280;27656;53.068;8.818;2023-08-06T03:30:34;100587.81;;;13.67;82.53
41967;BME280;27656;53.068;8.818;2023-08-06T03:33:00;100587.00;;;13.67;83.25
41967;BME280;27656;53.068;8.818;2023-08-06T03:35:27;100575.19;;;13.69;83.39
41967;BME280;27656;53.068;8.818;2023-08-06T03:37:54;100575.38;;;13.68;82.70
41967;BME280;27656;53.068;8.818;2023-08-06T03:40:20;100582.13;;;13.70;83.40
41967;BME280;27656;53.068;8.818;2023-08-06T03:42:46;100576.13;;;13.76;83.38
41967;BME280;27656;53.068;8.818;2023-08-06T03:45:13;100565.94;;;13.80;82.62
41967;BME280;27656;53.068;8.818;2023-08-06T03:47:40;100567.06;;;13.86;83.19
41967;BME280;27656;53.068;8.818;2023-08-06T03:50:07;100557.13;;;13.94;83.30
41967;BME280;27656;53.068;8.818;2023-08-06T03:52:33;100553.84;;;13.92;82.37
41967;BME280;27656;53.068;8.818;2023-08-06T03:55:00;100549.38;;;13.93;82.95
41967;BME280;27656;53.068;8.818;2023-08-06T03:57:26;100547.81;;;13.98;82.87
41967;BME280;27656;53.068;8.818;2023-08-06T03:59:53;100543.69;;;13.96;82.88
41967;BME280;27656;53.068;8.818;2023-08-06T04:02:21;100550.88;;;14.02;83.03
41967;BME280;27656;53.068;8.818;2023-08-06T04:04:48;100557.56;;;14.13;82.78
41967;BME280;27656;53.068;8.818;2023-08-06T04:07:14;100553.88;;;14.14;82.71
41967;BME280;27656;53.068;8.818;2023-08-06T04:09:54;100551.22;;;14.14;82.83
41967;BME280;27656;53.068;8.818;2023-08-06T04:12:21;100559.19;;;14.14;82.46
41967;BME280;27656;53.068;8.818;2023-08-06T04:14:49;100556.84;;;14.19;82.61
41967;BME280;27656;53.068;8.818;2023-08-06T04:17:15;100556.38;;;14.15;82.07
41967;BME280;27656;53.068;8.818;2023-08-06T04:19:42;100552.69;;;14.16;82.32
41967;BME280;27656;53.068;8.818;2023-08-06T04:22:08;100559.75;;;14.24;81.90
41967;BME280;27656;53.068;8.818;2023-08-06T04:24:35;100557.81;;;14.18;82.83
41967;BME280;27656;53.068;8.818;2023-08-06T04:27:01;100561.69;;;14.15;81.82
41967;BME280;27656;53.068;8.818;2023-08-06T04:29:28;100566.59;;;14.18;82.64
41967;BME280;27656;53.068;8.818;2023-08-06T04:31:54;100564.34;;;14.15;82.00
41967;BME280;27656;53.068;8.818;2023-08-06T04:34:21;100555.44;;;14.23;82.64
41967;BME280;27656;53.068;8.818;2023-08-06T04:36:48;100554.44;;;14.24;82.11
41967;BME280;27656;53.068;8.818;2023-08-06T04:39:15;100563.66;;;14.28;82.05
41967;BME280;27656;53.068;8.818;2023-08-06T04:41:41;100556.88;;;14.26;82.11
41967;BME280;27656;53.068;8.818;2023-08-06T04:44:07;100563.78;;;14.20;81.89
41967;BME280;27656;53.068;8.818;2023-08-06T04:46:34;100560.66;;;14.16;82.29
41967;BME280;27656;53.068;8.818;2023-08-06T04:49:00;100550.81;;;14.10;82.41
41967;BME280;27656;53.068;8.818;2023-08-06T04:51:27;100559.66;;;14.17;82.06
41967;BME280;27656;53.068;8.818;2023-08-06T04:53:53;100557.34;;;14.29;82.32
41967;BME280;27656;53.068;8.818;2023-08-06T04:56:20;100552.59;;;14.25;82.29
41967;BME280;27656;53.068;8.818;2023-08-06T04:58:46;100548.75;;;14.27;82.30
41967;BME280;27656;53.068;8.818;2023-08-06T05:01:13;100544.50;;;14.33;82.28
41967;BME280;27656;53.068;8.818;2023-08-06T05:03:39;100548.25;;;14.38;82.53
41967;BME280;27656;53.068;8.818;2023-08-06T05:06:06;100549.69;;;14.41;81.98
41967;BME280;27656;53.068;8.818;2023-08-06T05:08:32;100565.25;;;14.44;82.24
41967;BME280;27656;53.068;8.818;2023-08-06T05:10:59;100570.81;;;14.49;82.20
41967;BME280;27656;53.068;8.818;2023-08-06T05:13:25;100560.13;;;14.57;82.37
41967;BME280;27656;53.068;8.818;2023-08-06T05:15:55;100561.38;;;14.61;82.63
41967;BME280;27656;53.068;8.818;2023-08-06T05:25:56;100556.38;;;14.73;80.06
41967;BME280;27656;53.068;8.818;2023-08-06T05:28:22;100550.69;;;14.76;80.35
41967;BME280;27656;53.068;8.818;2023-08-06T05:34:35;100576.22;;;14.99;80.95
41967;BME280;27656;53.068;8.818;2023-08-06T05:37:04;100560.72;;;15.02;80.23
41967;BME280;27656;53.068;8.818;2023-08-06T05:39:31;100563.63;;;15.08;79.16
41967;BME280;27656;53.068;8.818;2023-08-06T05:41:57;100560.97;;;15.08;79.73
41967;BME280;27656;53.068;8.818;2023-08-06T05:48:42;100560.75;;;14.59;78.63
41967;BME280;27656;53.068;8.818;2023-08-06T05:51:26;100567.63;;;14.54;79.87
41967;BME280;27656;53.068;8.818;2023-08-06T05:57:39;100563.53;;;14.73;80.03
41967;BME280;27656;53.068;8.818;2023-08-06T06:00:07;100571.13;;;14.97;80.14
41967;BME280;27656;53.068;8.818;2023-08-06T06:02:34;100569.97;;;14.85;78.98
41967;BME280;27656;53.068;8.818;2023-08-06T06:05:00;100570.63;;;15.15;80.30
41967;BME280;27656;53.068;8.818;2023-08-06T06:07:29;100568.50;;;15.32;79.39
41967;BME280;27656;53.068;8.818;2023-08-06T06:09:56;100560.75;;;15.37;76.92
41967;BME280;27656;53.068;8.818;2023-08-06T06:16:46;100566.13;;;15.44;77.80
41967;BME280;27656;53.068;8.818;2023-08-06T06:19:13;100560.88;;;15.57;78.13
41967;BME280;27656;53.068;8.818;2023-08-06T06:21:39;100568.97;;;15.71;77.57
41967;BME280;27656;53.068;8.818;2023-08-06T06:24:06;100560.78;;;15.72;77.16
41967;BME280;27656;53.068;8.818;2023-08-06T06:26:35;100562.22;;;15.75;75.98
41967;BME280;27656;53.068;8.818;2023-08-06T06:29:01;100555.50;;;15.79;76.51
41967;BME280;27656;53.068;8.818;2023-08-06T06:31:28;100554.72;;;15.92;76.32
41967;BME280;27656;53.068;8.818;2023-08-06T06:33:55;100558.25;;;16.05;76.28
41967;BME280;27656;53.068;8.818;2023-08-06T06:36:21;100564.16;;;15.94;75.32
41967;BME280;27656;53.068;8.818;2023-08-06T06:38:50;100568.47;;;15.95;75.21
41967;BME280;27656;53.068;8.818;2023-08-06T06:41:19;100574.16;;;15.85;75.01
41967;BME280;27656;53.068;8.818;2023-08-06T06:43:45;100579.13;;;15.95;74.82
41967;BME280;27656;53.068;8.818;2023-08-06T06:46:12;100577.09;;;16.04;75.49
41967;BME280;27656;53.068;8.818;2023-08-06T06:48:38;100565.06;;;16.15;75.25
41967;BME280;27656;53.068;8.818;2023-08-06T06:51:05;100576.69;;;16.00;74.20
41967;BME280;27656;53.068;8.818;2023-08-06T06:53:31;100578.38;;;16.15;75.15
41967;BME280;27656;53.068;8.818;2023-08-06T06:56:02;100584.75;;;16.27;75.66
41967;BME280;27656;53.068;8.818;2023-08-06T06:58:30;100574.38;;;16.52;74.76
41967;BME280;27656;53.068;8.818;2023-08-06T07:00:57;100576.44;;;16.63;74.19
41967;BME280;27656;53.068;8.818;2023-08-06T07:03:24;100577.25;;;16.50;71.99
41967;BME280;27656;53.068;8.818;2023-08-06T07:05:50;100574.19;;;16.47;73.39
41967;BME280;27656;53.068;8.818;2023-08-06T07:08:17;100578.44;;;16.41;73.37
41967;BME280;27656;53.068;8.818;2023-08-06T07:11:00;100573.09;;;16.28;73.83
41967;BME280;27656;53.068;8.818;2023-08-06T07:13:28;100572.91;;;16.36;73.47
41967;BME280;27656;53.068;8.818;2023-08-06T07:15:55;100578.38;;;16.15;72.28
41967;BME280;27656;53.068;8.818;2023-08-06T07:18:22;100579.41;;;16.14;72.57
41967;BME280;27656;53.068;8.818;2023-08-06T07:20:53;100574.19;;;16.47;73.31
41967;BME280;27656;53.068;8.818;2023-08-06T07:23:24;100579.50;;;16.47;71.99
41967;BME280;27656;53.068;8.818;2023-08-06T07:25:51;100569.88;;;16.72;70.88
41967;BME280;27656;53.068;8.818;2023-08-06T07:28:18;100576.50;;;17.10;71.24
41967;BME280;27656;53.068;8.818;2023-08-06T07:30:45;100582.22;;;17.40;70.85
41967;BME280;27656;53.068;8.818;2023-08-06T07:33:12;100585.09;;;17.52;69.91
41967;BME280;27656;53.068;8.818;2023-08-06T07:35:38;100586.53;;;17.41;68.45
41967;BME280;27656;53.068;8.818;2023-08-06T07:38:05;100587.97;;;17.50;68.45
41967;BME280;27656;53.068;8.818;2023-08-06T07:40:31;100580.81;;;17.17;68.14
41967;BME280;27656;53.068;8.818;2023-08-06T07:42:58;100577.34;;;17.04;68.23
41967;BME280;27656;53.068;8.818;2023-08-06T07:45:24;100581.66;;;17.18;67.54
41967;BME280;27656;53.068;8.818;2023-08-06T07:47:53;100570.34;;;16.96;68.62
41967;BME280;27656;53.068;8.818;2023-08-06T07:50:20;100573.88;;;16.97;70.01
41967;BME280;27656;53.068;8.818;2023-08-06T07:52:46;100580.69;;;16.44;71.08
41967;BME280;27656;53.068;8.818;2023-08-06T07:55:13;100579.72;;;16.65;70.73
41967;BME280;27656;53.068;8.818;2023-08-06T07:57:40;100579.78;;;17.25;67.95
41967;BME280;27656;53.068;8.818;2023-08-06T08:00:07;100572.81;;;17.24;69.31
41967;BME280;27656;53.068;8.818;2023-08-06T08:02:34;100568.72;;;16.07;72.84
41967;BME280;27656;53.068;8.818;2023-08-06T08:05:00;100579.06;;;16.37;71.38
41967;BME280;27656;53.068;8.818;2023-08-06T08:07:27;100578.13;;;16.84;70.06
41967;BME280;27656;53.068;8.818;2023-08-06T08:09:56;100570.13;;;17.24;68.31
41967;BME280;27656;53.068;8.818;2023-08-06T08:12:23;100568.94;;;17.13;68.09
41967;BME280;27656;53.068;8.818;2023-08-06T08:14:49;100563.97;;;17.17;68.57
41967;BME280;27656;53.068;8.818;2023-08-06T08:17:15;100564.56;;;17.39;67.21
41967;BME280;27656;53.068;8.818;2023-08-06T08:19:43;100562.88;;;17.65;67.52
41967;BME280;27656;53.068;8.818;2023-08-06T08:22:10;100561.31;;;17.10;69.38
41967;BME280;27656;53.068;8.818;2023-08-06T08:24:36;100562.75;;;17.40;67.89
41967;BME280;27656;53.068;8.818;2023-08-06T08:27:03;100554.97;;;17.11;69.52
41967;BME280;27656;53.068;8.818;2023-08-06T08:29:30;100553.13;;;17.19;71.06
41967;BME280;27656;53.068;8.818;2023-08-06T08:31:56;100547.91;;;17.64;69.98
41967;BME280;27656;53.068;8.818;2023-08-06T08:34:23;100547.13;;;17.43;68.20
41967;BME280;27656;53.068;8.818;2023-08-06T08:36:50;100543.78;;;17.61;68.36
41967;BME280;27656;53.068;8.818;2023-08-06T08:39:16;100546.84;;;17.71;68.69
41967;BME280;27656;53.068;8.818;2023-08-06T08:41:43;100546.94;;;18.03;67.21
41967;BME280;27656;53.068;8.818;2023-08-06T08:44:10;100542.81;;;17.49;69.34
41967;BME280;27656;53.068;8.818;2023-08-06T08:46:40;100542.31;;;17.72;68.06
41967;BME280;27656;53.068;8.818;2023-08-06T08:49:08;100535.47;;;18.34;67.78
41967;BME280;27656;53.068;8.818;2023-08-06T08:51:35;100530.31;;;18.64;65.12
41967;BME280;27656;53.068;8.818;2023-08-06T08:54:07;100534.47;;;18.60;66.99
41967;BME280;27656;53.068;8.818;2023-08-06T08:56:34;100532.75;;;18.41;64.89
41967;BME280;27656;53.068;8.818;2023-08-06T08:59:01;100533.91;;;17.75;69.35
41967;BME280;27656;53.068;8.818;2023-08-06T09:01:28;100535.28;;;17.91;66.62
41967;BME280;27656;53.068;8.818;2023-08-06T09:03:55;100529.47;;;18.00;66.85
41967;BME280;27656;53.068;8.818;2023-08-06T09:06:23;100527.00;;;18.44;65.44
41967;BME280;27656;53.068;8.818;2023-08-06T09:09:22;100521.03;;;18.42;66.54
41967;BME280;27656;53.068;8.818;2023-08-06T09:11:43;100519.63;;;18.39;66.60
41967;BME280;27656;53.068;8.818;2023-08-06T09:14:11;100521.81;;;18.74;63.75
41967;BME280;27656;53.068;8.818;2023-08-06T09:16:38;100517.59;;;18.92;64.12
41967;BME280;27656;53.068;8.818;2023-08-06T09:19:11;100520.91;;;18.55;65.81
41967;BME280;27656;53.068;8.818;2023-08-06T09:21:45;100523.47;;;18.75;65.18
41967;BME280;27656;53.068;8.818;2023-08-06T09:24:15;100529.22;;;18.79;64.44
41967;BME280;27656;53.068;8.818;2023-08-06T09:26:44;100519.94;;;18.81;65.35
41967;BME280;27656;53.068;8.818;2023-08-06T09:29:11;100524.91;;;18.78;64.94
41967;BME280;27656;53.068;8.818;2023-08-06T09:31:45;100522.28;;;18.96;63.56
41967;BME280;27656;53.068;8.818;2023-08-06T09:36:41;100519.31;;;19.04;63.91
41967;BME280;27656;53.068;8.818;2023-08-06T09:39:18;100517.81;;;18.90;65.47
41967;BME280;27656;53.068;8.818;2023-08-06T09:41:45;100515.78;;;18.85;67.01
41967;BME280;27656;53.068;8.818;2023-08-06T09:44:18;100517.63;;;19.10;63.92
41967;BME280;27656;53.068;8.818;2023-08-06T09:46:50;100509.19;;;19.32;64.24
41967;BME280;27656;53.068;8.818;2023-08-06T09:49:24;100514.03;;;19.41;63.89
41967;BME280;27656;53.068;8.818;2023-08-06T09:51:51;100510.22;;;19.31;63.00
41967;BME280;27656;53.068;8.818;2023-08-06T09:54:20;100521.69;;;18.94;64.48
41967;BME280;27656;53.068;8.818;2023-08-06T09:56:54;100512.59;;;18.70;63.68
41967;BME280;27656;53.068;8.818;2023-08-06T09:59:22;100507.81;;;19.41;64.44
41967;BME280;27656;53.068;8.818;2023-08-06T10:01:49;100504.34;;;19.96;59.96
41967;BME280;27656;53.068;8.818;2023-08-06T10:04:16;100511.94;;;20.41;58.31
41967;BME280;27656;53.068;8.818;2023-08-06T10:06:48;100507.47;;;19.37;61.88
41967;BME280;27656;53.068;8.818;2023-08-06T10:09:14;100515.94;;;19.89;63.48
41967;BME280;27656;53.068;8.818;2023-08-06T10:11:42;100500.94;;;20.30;59.61
41967;BME280;27656;53.068;8.818;2023-08-06T10:14:21;100505.88;;;20.03;57.64
41967;BME280;27656;53.068;8.818;2023-08-06T10:16:50;100508.59;;;20.57;59.54
41967;BME280;27656;53.068;8.818;2023-08-06T10:19:17;100502.94;;;20.35;57.91
41967;BME280;27656;53.068;8.818;2023-08-06T10:25:09;100507.81;;;20.68;56.57
41967;BME280;27656;53.068;8.818;2023-08-06T10:30:30;100504.31;;;21.15;56.66
41967;BME280;27656;53.068;8.818;2023-08-06T10:33:04;100505.22;;;21.32;57.16
41967;BME280;27656;53.068;8.818;2023-08-06T10:38:22;100522.25;;;20.56;55.71
41967;BME280;27656;53.068;8.818;2023-08-06T10:43:32;100500.00;;;20.67;58.15
41967;BME280;27656;53.068;8.818;2023-08-06T10:46:02;100500.59;;;20.81;56.02
41967;BME280;27656;53.068;8.818;2023-08-06T10:48:30;100499.06;;;21.08;55.98
41967;BME280;27656;53.068;8.818;2023-08-06T10:51:00;100494.84;;;21.36;55.47
41967;BME280;27656;53.068;8.818;2023-08-06T10:53:26;100498.59;;;21.00;55.42
41967;BME280;27656;53.068;8.818;2023-08-06T10:59:03;100503.53;;;20.07;55.61
41967;BME280;27656;53.068;8.818;2023-08-06T11:01:30;100500.25;;;19.56;56.30
41967;BME280;27656;53.068;8.818;2023-08-06T11:04:01;100503.97;;;19.74;55.47
41967;BME280;27656;53.068;8.818;2023-08-06T11:06:28;100489.31;;;19.39;51.30
41967;BME280;27656;53.068;8.818;2023-08-06T11:08:55;100497.19;;;20.20;52.36
41967;BME280;27656;53.068;8.818;2023-08-06T11:11:23;100486.56;;;20.55;50.73
41967;BME280;27656;53.068;8.818;2023-08-06T11:13:51;100488.13;;;20.86;51.45
41967;BME280;27656;53.068;8.818;2023-08-06T11:16:19;100485.78;;;20.90;57.35
41967;BME280;27656;53.068;8.818;2023-08-06T11:18:46;100488.44;;;20.90;56.55
41967;BME280;27656;53.068;8.818;2023-08-06T11:21:14;100493.50;;;20.98;56.49
41967;BME280;27656;53.068;8.818;2023-08-06T11:23:44;100475.91;;;19.76;56.60
41967;BME280;27656;53.068;8.818;2023-08-06T11:26:11;100482.59;;;20.16;56.43
41967;BME280;27656;53.068;8.818;2023-08-06T11:28:40;100482.66;;;20.39;56.81
41967;BME280;27656;53.068;8.818;2023-08-06T11:31:06;100484.31;;;20.52;55.04
41967;BME280;27656;53.068;8.818;2023-08-06T11:33:32;100496.91;;;20.51;55.48
41967;BME280;27656;53.068;8.818;2023-08-06T11:35:59;100496.81;;;19.67;57.13
41967;BME280;27656;53.068;8.818;2023-08-06T11:38:28;100485.78;;;20.90;55.53
41967;BME280;27656;53.068;8.818;2023-08-06T11:40:55;100477.38;;;20.74;56.21
41967;BME280;27656;53.068;8.818;2023-08-06T11:43:22;100475.16;;;20.83;52.66
41967;BME280;27656;53.068;8.818;2023-08-06T11:45:52;100467.44;;;21.22;53.40
41967;BME280;27656;53.068;8.818;2023-08-06T11:52:19;100457.69;;;21.56;54.46
41967;BME280;27656;53.068;8.818;2023-08-06T11:58:29;100461.41;;;20.80;54.26
41967;BME280;27656;53.068;8.818;2023-08-06T12:00:55;100451.03;;;21.47;54.39
41967;BME280;27656;53.068;8.818;2023-08-06T12:03:59;100456.69;;;22.03;54.40
41967;BME280;27656;53.068;8.818;2023-08-06T12:06:30;100452.69;;;21.48;51.86
41967;BME280;27656;53.068;8.818;2023-08-06T12:08:57;100458.78;;;21.32;52.05
41967;BME280;27656;53.068;8.818;2023-08-06T12:11:23;100453.03;;;21.28;52.81
41967;BME280;27656;53.068;8.818;2023-08-06T12:13:54;100448.63;;;21.22;52.22
41967;BME280;27656;53.068;8.818;2023-08-06T12:19:39;100451.44;;;21.27;50.62
41967;BME280;27656;53.068;8.818;2023-08-06T12:22:05;100437.25;;;21.84;51.46
41967;BME280;27656;53.068;8.818;2023-08-06T12:24:32;100431.34;;;22.83;48.97
41967;BME280;27656;53.068;8.818;2023-08-06T12:30:19;100430.09;;;22.07;49.08
41967;BME280;27656;53.068;8.818;2023-08-06T12:36:33;100443.91;;;20.77;51.46
41967;BME280;27656;53.068;8.818;2023-08-06T12:38:59;100435.47;;;20.97;51.11
41967;BME280;27656;53.068;8.818;2023-08-06T12:48:57;100441.69;;;20.74;56.86
41967;BME280;27656;53.068;8.818;2023-08-06T12:51:58;100449.56;;;20.33;58.15
41967;BME280;27656;53.068;8.818;2023-08-06T12:54:26;100449.03;;;20.13;57.59
41967;BME280;27656;53.068;8.818;2023-08-06T12:56:54;100445.25;;;20.02;59.13
41967;BME280;27656;53.068;8.818;2023-08-06T12:59:20;100434.75;;;19.89;58.79
41967;BME280;27656;53.068;8.818;2023-08-06T13:01:47;100440.41;;;20.11;57.61
41967;BME280;27656;53.068;8.818;2023-08-06T13:04:14;100442.47;;;20.51;57.31
41967;BME280;27656;53.068;8.818;2023-08-06T13:06:48;100437.25;;;20.68;54.28
41967;BME280;27656;53.068;8.818;2023-08-06T13:09:17;100436.19;;;20.92;55.31
41967;BME280;27656;53.068;8.818;2023-08-06T13:11:43;100438.81;;;21.28;56.43
41967;BME280;27656;53.068;8.818;2023-08-06T13:14:14;100448.44;;;21.12;53.64
41967;BME280;27656;53.068;8.818;2023-08-06T13:16:41;100432.56;;;21.10;54.97
41967;BME280;27656;53.068;8.818;2023-08-06T13:19:09;100440.47;;;21.17;56.09
41967;BME280;27656;53.068;8.818;2023-08-06T13:25:00;100434.25;;;21.69;52.15
41967;BME280;27656;53.068;8.818;2023-08-06T13:31:13;100446.50;;;21.48;51.76
41967;BME280;27656;53.068;8.818;2023-08-06T13:33:40;100441.19;;;21.65;50.99
41967;BME280;27656;53.068;8.818;2023-08-06T13:36:07;100443.06;;;21.64;52.11
41967;BME280;27656;53.068;8.818;2023-08-06T13:38:33;100440.88;;;21.49;51.57
41967;BME280;27656;53.068;8.818;2023-08-06T13:41:00;100434.03;;;21.42;52.36
41967;BME280;27656;53.068;8.818;2023-08-06T13:43:45;100432.84;;;21.26;53.46
41967;BME280;27656;53.068;8.818;2023-08-06T13:46:12;100442.47;;;21.22;51.94
41967;BME280;27656;53.068;8.818;2023-08-06T14:03:51;100432.78;;;21.09;53.29
41967;BME280;27656;53.068;8.818;2023-08-06T14:06:43;100430.00;;;21.04;53.51
41967;BME280;27656;53.068;8.818;2023-08-06T14:09:10;100442.19;;;21.35;53.91
41967;BME280;27656;53.068;8.818;2023-08-06T14:11:40;100426.47;;;21.15;52.49
41967;BME280;27656;53.068;8.818;2023-08-06T14:14:08;100429.72;;;21.29;54.38
41967;BME280;27656;53.068;8.818;2023-08-06T14:16:34;100439.97;;;21.32;52.94
41967;BME280;27656;53.068;8.818;2023-08-06T14:19:01;100451.38;;;20.75;54.50
41967;BME280;27656;53.068;8.818;2023-08-06T14:21:27;100430.34;;;20.48;55.50
41967;BME280;27656;53.068;8.818;2023-08-06T14:23:54;100433.75;;;20.56;56.69